^^
B2 Weather Station Historical Data
Daily Summary for June 23, 2019 Units:  English    Metric   Both
Daily Weekly Monthly Yearly Custom
  High: Low: Average:
Temperature: 82.2 °F 64.5 °F 71.6 °F
Dew Point: 76.4 °F 62.7 °F 68.7 °F
Humidity: 95% 66% 91%
Wind Speed: 19.6mph 0mph 6.5mph
Wind Gust: 14.9mph - -
Wind- - SSE
Pressure: 30.00 in 29.67 in -
Precipitation: 0.43 in    
Historical Graphs
 
 
Tabular Data for June 23, 2019
Time Temperature Dew Point Pressure Wind Wind Speed Wind Gust Humidity Rainfall Rate (Hourly) solar
00:04 68.9 °F 65.8 °F 29.99 in SE 1.2 mph   90% 0 in 0.00 W/m2
00:09 68.9 °F 65.8 °F 29.99 in SSE 2.3 mph 1.9 mph 90% 0 in 0.00 W/m2
00:14 68.8 °F 65.7 °F 29.99 in SSE 8 mph 1.9 mph 90% 0 in 0.00 W/m2
00:19 68.8 °F 65.7 °F 29.99 in SE 4 mph 1.9 mph 90% 0 in 0.00 W/m2
00:24 68.7 °F 65.6 °F 30.00 in SSE 3.5 mph 2.7 mph 90% 0 in 0.00 W/m2
00:29 68.6 °F 65.9 °F 30.00 in SSE 4.6 mph 1.7 mph 91% 0 in 0.00 W/m2
00:34 68.6 °F 65.9 °F 30.00 in SSE 4.6 mph 2.6 mph 91% 0 in 0.00 W/m2
00:39 68.6 °F 65.9 °F 29.99 in SE 6 mph 2.4 mph 91% 0 in 0.00 W/m2
00:44 68.6 °F 65.9 °F 29.99 in SE 5.8 mph 1.2 mph 91% 0 in 0.00 W/m2
00:49 68.5 °F 65.8 °F 29.98 in SE 5.8 mph 3.3 mph 91% 0 in 0.00 W/m2
00:54 68.4 °F 65.7 °F 29.98 in SSE 5.8 mph 2.7 mph 91% 0 in 0.00 W/m2
00:59 68.3 °F 65.6 °F 29.98 in SE 6.9 mph 3.2 mph 91% 0 in 0.00 W/m2
01:04 68.3 °F 65.6 °F 29.98 in SE 8.1 mph 0.6 mph 91% 0 in 0.00 W/m2
01:09 68.3 °F 65.6 °F 29.98 in SE 4.6 mph 0.8 mph 91% 0 in 0.00 W/m2
01:14 68.2 °F 65.5 °F 29.98 in SE 3.5 mph 2.1 mph 91% 0 in 0.00 W/m2
01:19 68 °F 65.3 °F 29.98 in SE 8.1 mph 4.1 mph 91% 0 in 0.00 W/m2
01:24 68 °F 65.6 °F 29.98 in SSE 4.6 mph 0.8 mph 92% 0 in 0.00 W/m2
01:29 67.8 °F 65.4 °F 29.98 in SE 5.8 mph 3.6 mph 92% 0 in 0.00 W/m2
01:34 67.8 °F 65.4 °F 29.98 in SE 8.1 mph 3.3 mph 92% 0 in 0.00 W/m2
01:39 67.7 °F 65.3 °F 29.98 in SE 3.5 mph   92% 0 in 0.00 W/m2
01:44 67.6 °F 65.2 °F 29.98 in Calm     92% 0 in 0.00 W/m2
01:49 67.5 °F 65.1 °F 29.98 in SE 3.5 mph 1.1 mph 92% 0 in 0.00 W/m2
01:54 67.4 °F 65 °F 29.98 in SE 4 mph 0.4 mph 92% 0 in 0.00 W/m2
01:59 67.3 °F 65.2 °F 29.98 in SE 2.3 mph   93% 0 in 0.00 W/m2
02:04 67.2 °F 65.1 °F 29.98 in SE 3.5 mph 2.7 mph 93% 0 in 0.00 W/m2
02:09 67.2 °F 65.1 °F 29.97 in SE 4 mph 1.3 mph 93% 0 in 0.00 W/m2
02:14 67.1 °F 65 °F 29.97 in SE 5.8 mph 1 mph 93% 0 in 0.00 W/m2
02:19 67.1 °F 65 °F 29.96 in ESE 3 mph 2.6 mph 93% 0 in 0.00 W/m2
02:24 67.1 °F 65 °F 29.96 in SE 8.1 mph 2.4 mph 93% 0 in 0.00 W/m2
02:29 67.1 °F 65 °F 29.96 in SE 6.9 mph 4.7 mph 93% 0 in 0.00 W/m2
02:34 67.1 °F 65 °F 29.96 in ESE 5 mph 4.2 mph 93% 0 in 0.00 W/m2
02:39 67.1 °F 65 °F 29.96 in SE 7 mph 4.2 mph 93% 0 in 0.00 W/m2
02:44 67.1 °F 65 °F 29.95 in ESE 8.1 mph 3.4 mph 93% 0 in 0.00 W/m2
02:49 67.2 °F 65.1 °F 29.95 in ESE 6.9 mph 3.1 mph 93% 0 in 0.00 W/m2
02:54 67.1 °F 65 °F 29.95 in SE 6.9 mph 2.6 mph 93% 0 in 0.00 W/m2
02:59 67 °F 64.9 °F 29.95 in SE 8.1 mph 4.8 mph 93% 0 in 0.00 W/m2
03:04 67 °F 64.9 °F 29.95 in SE 8.1 mph 6.3 mph 93% 0 in 0.00 W/m2
03:09 67 °F 64.9 °F 29.95 in ESE 10.4 mph 4.7 mph 93% 0 in 0.00 W/m2
03:14 67 °F 64.9 °F 29.94 in SE 6.9 mph 4 mph 93% 0 in 0.00 W/m2
03:19 67 °F 64.9 °F 29.94 in SE 4 mph 3.8 mph 93% 0 in 0.00 W/m2
03:24 66.9 °F 64.8 °F 29.93 in SE 6.9 mph 4.1 mph 93% 0 in 0.00 W/m2
03:29 66.8 °F 64.7 °F 29.93 in SE 7 mph 4.4 mph 93% 0 in 0.00 W/m2
03:35 66.8 °F 64.7 °F 29.93 in SE 9.2 mph 5.5 mph 93% 0 in 0.00 W/m2
03:39 66.8 °F 64.7 °F 29.93 in SE 6.9 mph 6.5 mph 93% 0 in 0.00 W/m2
03:44 66.8 °F 64.7 °F 29.93 in ESE 8.1 mph 2.6 mph 93% 0 in 0.00 W/m2
03:49 66.8 °F 64.7 °F 29.93 in SE 1.2 mph   93% 0 in 0.00 W/m2
03:54 66.8 °F 64.7 °F 29.92 in ESE 4.6 mph 1.5 mph 93% 0 in 0.00 W/m2
03:59 66.8 °F 64.7 °F 29.92 in SE 5 mph 1.1 mph 93% 0 in 0.00 W/m2
04:04 66.7 °F 64.6 °F 29.92 in Calm     93% 0 in 0.00 W/m2
04:09 66.5 °F 64.4 °F 29.91 in ESE 4.6 mph 1.7 mph 93% 0 in 0.00 W/m2
04:14 66.3 °F 64.2 °F 29.91 in East 1 mph 1.3 mph 93% 0 in 0.00 W/m2
04:19 66.2 °F 64.1 °F 29.91 in ESE 2.3 mph 2.1 mph 93% 0 in 0.00 W/m2
04:24 66 °F 63.9 °F 29.91 in ENE 6.9 mph 3.7 mph 93% 0 in 0.00 W/m2
04:29 65.8 °F 63.7 °F 29.91 in East 4.6 mph 1.7 mph 93% 0 in 0.00 W/m2
04:34 65.7 °F 63.6 °F 29.91 in East 7 mph 0.8 mph 93% 0 in 0.00 W/m2
04:39 65.5 °F 63.4 °F 29.91 in ESE 6.9 mph 1.9 mph 93% 0 in 0.00 W/m2
04:44 65.3 °F 63.5 °F 29.91 in ESE 5.8 mph 3.5 mph 94% 0 in 0.00 W/m2
04:49 65.2 °F 63.4 °F 29.91 in ESE 5 mph 3.8 mph 94% 0 in 0.00 W/m2
04:54 65.2 °F 63.1 °F 29.91 in East 8.1 mph 5.2 mph 93% 0 in 0.00 W/m2
04:59 65.2 °F 63.1 °F 29.91 in SSE 5.8 mph 3.1 mph 93% 0 in 0.00 W/m2
05:04 65.2 °F 63.1 °F 29.91 in ESE 8.1 mph 5 mph 93% 0 in 0.00 W/m2
05:09 65.2 °F 63.1 °F 29.91 in ESE 7 mph 3.4 mph 93% 0 in 0.00 W/m2
05:14 65.1 °F 63 °F 29.91 in ESE 6.9 mph 2.9 mph 93% 0 in 0.00 W/m2
05:19 65 °F 62.9 °F 29.91 in ESE 7 mph 2.3 mph 93% 0 in 0.00 W/m2
05:24 65 °F 62.9 °F 29.92 in ESE 3.5 mph 0.6 mph 93% 0 in 5.00 W/m2
05:29 65 °F 62.9 °F 29.92 in East 6.9 mph 1.4 mph 93% 0 in 11.00 W/m2
05:34 65 °F 62.9 °F 29.92 in East 5.8 mph 3.3 mph 93% 0 in 14.00 W/m2
05:39 65 °F 62.9 °F 29.93 in ESE 4.6 mph 4.5 mph 93% 0 in 14.00 W/m2
05:44 65 °F 62.9 °F 29.94 in SE 5 mph 3 mph 93% 0 in 9.00 W/m2
05:49 65.1 °F 63 °F 29.95 in SSE 1.2 mph   93% 0 in 0.00 W/m2
05:54 65.2 °F 63.1 °F 29.97 in Calm     93% 0 in 0.00 W/m2
05:59 65.3 °F 63.5 °F 29.96 in Calm     94% 0 in 0.00 W/m2
06:04 65.3 °F 63.5 °F 29.95 in East 5.8 mph 1.1 mph 94% 0 in 0.00 W/m2
06:09 65.1 °F 63.3 °F 29.95 in Calm     94% 0 in 0.00 W/m2
06:14 64.9 °F 63.1 °F 29.94 in East 3.5 mph 3.6 mph 94% 0 in 0.00 W/m2
06:19 64.7 °F 62.9 °F 29.94 in East 4.6 mph 0.7 mph 94% 0 in 11.00 W/m2
06:24 64.6 °F 62.8 °F 29.94 in East 6.9 mph 1.3 mph 94% 0 in 19.00 W/m2
06:29 64.5 °F 62.7 °F 29.94 in East 5.8 mph 4.5 mph 94% 0 in 25.00 W/m2
06:34 64.5 °F 62.7 °F 29.94 in East 6.9 mph 1.6 mph 94% 0 in 26.00 W/m2
06:39 64.5 °F 62.7 °F 29.94 in ENE 3.5 mph 0.4 mph 94% 0 in 39.00 W/m2
06:44 64.6 °F 63.1 °F 29.93 in Calm     95% 0 in 42.00 W/m2
06:49 64.7 °F 63.2 °F 29.93 in Calm     95% 0 in 46.00 W/m2
06:54 64.9 °F 63.4 °F 29.93 in ENE 6.9 mph 3.5 mph 95% 0 in 49.00 W/m2
06:59 64.9 °F 63.4 °F 29.92 in ENE 8.1 mph 7.2 mph 95% 0 in 72.00 W/m2
07:04 64.9 °F 63.4 °F 29.92 in ENE 9.2 mph 4.8 mph 95% 0 in 109.00 W/m2
07:09 65.1 °F 63.6 °F 29.92 in East 5.8 mph 1.6 mph 95% 0 in 137.00 W/m2
07:14 65.3 °F 63.8 °F 29.92 in East 6.9 mph 1.5 mph 95% 0 in 72.00 W/m2
07:19 65.4 °F 63.9 °F 29.92 in ESE 5 mph 2 mph 95% 0 in 90.00 W/m2
07:24 65.4 °F 63.6 °F 29.92 in East 6.9 mph 5.2 mph 94% 0 in 107.00 W/m2
07:29 65.6 °F 64.1 °F 29.92 in ENE 8.1 mph 4.5 mph 95% 0 in 174.00 W/m2
07:34 65.8 °F 64.3 °F 29.92 in East 9.2 mph 5.7 mph 95% 0 in 163.00 W/m2
07:39 66.1 °F 64.6 °F 29.93 in SE 10.4 mph 5.7 mph 95% 0 in 156.00 W/m2
07:44 66.1 °F 64.3 °F 29.92 in East 5.8 mph 1.4 mph 94% 0 in 98.00 W/m2
07:49 66.2 °F 64.4 °F 29.93 in ESE 8.1 mph 3.9 mph 94% 0 in 135.00 W/m2
07:54 66.2 °F 64.4 °F 29.92 in East 8.1 mph 3.8 mph 94% 0 in 114.00 W/m2
07:59 66.2 °F 64.1 °F 29.92 in East 9.2 mph 5.5 mph 93% 0 in 153.00 W/m2
08:04 66.3 °F 64.2 °F 29.91 in East 8.1 mph 5 mph 93% 0 in 118.00 W/m2
08:09 66.3 °F 64.2 °F 29.91 in ESE 6.9 mph 3.8 mph 93% 0.01 in 130.00 W/m2
08:14 66.7 °F 64.9 °F 29.90 in SE 6.9 mph 6.2 mph 94% 0.11 in 403.00 W/m2
08:19 67.2 °F 65.4 °F 29.90 in ESE 10.4 mph 1.8 mph 94% 0.33 in 399.00 W/m2
08:24 67 °F 65.5 °F 29.90 in ESE 11 mph 3 mph 95% 0.33 in 425.00 W/m2
08:29 67.4 °F 65.9 °F 29.89 in ESE 11.5 mph 7.8 mph 95% 0.33 in 469.00 W/m2
08:35 67.8 °F 66.3 °F 29.89 in ESE 9.2 mph 5.3 mph 95% 0.33 in 482.00 W/m2
08:39 68.1 °F 66.6 °F 29.90 in SE 11.5 mph 8 mph 95% 0.33 in 506.00 W/m2
08:44 68.4 °F 66.9 °F 29.89 in SE 11 mph 6.7 mph 95% 0.33 in 464.00 W/m2
08:49 68.8 °F 67.3 °F 29.88 in SE 12.7 mph 8.2 mph 95% 0.33 in 489.00 W/m2
08:54 69 °F 67.5 °F 29.88 in SE 13.8 mph 8.7 mph 95% 0.33 in 471.00 W/m2
08:59 69.2 °F 67.7 °F 29.88 in SE 15 mph 8.4 mph 95% 0.33 in 366.00 W/m2
09:04 69.3 °F 67.8 °F 29.88 in SE 11.5 mph 7.7 mph 95% 0.33 in 374.00 W/m2
09:09 69.5 °F 68 °F 29.88 in SE 12.7 mph 9 mph 95% 0.32 in 425.00 W/m2
09:14 69.9 °F 68.4 °F 29.87 in SE 19.6 mph 11.9 mph 95% 0.22 in 403.00 W/m2
09:19 70.1 °F 68.6 °F 29.86 in ESE 16.1 mph 14.9 mph 95% 0 in 522.00 W/m2
09:24 70.3 °F 68.8 °F 29.86 in SE 16.1 mph 8.8 mph 95% 0 in 320.00 W/m2
09:29 70.4 °F 68.9 °F 29.86 in SE 18.4 mph 9.8 mph 95% 0 in 415.00 W/m2
09:34 70.8 °F 69.3 °F 29.86 in SE 11.5 mph 7.3 mph 95% 0 in 214.00 W/m2
09:39 70.4 °F 68.9 °F 29.86 in SSE 13.8 mph 10.1 mph 95% 0 in 260.00 W/m2
09:44 70.5 °F 69 °F 29.86 in SE 10.4 mph 4.8 mph 95% 0 in 343.00 W/m2
09:49 71 °F 69.5 °F 29.86 in ESE 8.1 mph 6.4 mph 95% 0 in 288.00 W/m2
09:54 71.1 °F 69.6 °F 29.86 in ESE 10.4 mph 8.3 mph 95% 0 in 322.00 W/m2
09:59 71.2 °F 69.7 °F 29.86 in SSE 12.7 mph 7.5 mph 95% 0 in 176.00 W/m2
10:04 71.3 °F 69.8 °F 29.85 in SE 12.7 mph 8.5 mph 95% 0 in 290.00 W/m2
10:09 71.9 °F 70.4 °F 29.85 in SE 11.5 mph 6.4 mph 95% 0 in 330.00 W/m2
10:14 72.3 °F 70.8 °F 29.85 in SSE 10 mph 6.8 mph 95% 0 in 332.00 W/m2
10:19 72.5 °F 70.7 °F 29.85 in SE 12.7 mph 7.4 mph 94% 0 in 276.00 W/m2
10:24 73 °F 70.9 °F 29.84 in SE 11.5 mph 8.9 mph 93% 0 in 341.00 W/m2
10:29 73.4 °F 70.9 °F 29.84 in SE 15 mph 8.1 mph 92% 0 in 338.00 W/m2
10:34 73.7 °F 70.9 °F 29.84 in SSE 15 mph 8.7 mph 91% 0 in 158.00 W/m2
10:39 73.3 °F 70.2 °F 29.83 in SE 15 mph 10.4 mph 90% 0 in 248.00 W/m2
10:44 73.6 °F 70.8 °F 29.84 in SE 10.4 mph 8.4 mph 91% 0 in 287.00 W/m2
10:49 73.7 °F 70.3 °F 29.83 in SE 16.1 mph 7.1 mph 89% 0 in 318.00 W/m2
10:54 74 °F 70.6 °F 29.84 in SE 16.1 mph 9 mph 89% 0 in 320.00 W/m2
10:59 74.2 °F 70.7 °F 29.84 in SE 11.5 mph 8.8 mph 89% 0 in 246.00 W/m2
11:04 74.2 °F 70.7 °F 29.84 in SSE 10.4 mph 7.7 mph 89% 0 in 271.00 W/m2
11:09 74.2 °F 70.4 °F 29.84 in SSE 10.4 mph 5.8 mph 88% 0 in 220.00 W/m2
11:14 74.4 °F 70.9 °F 29.84 in SSE 10 mph 5.3 mph 89% 0 in 218.00 W/m2
11:19 74.6 °F 70.8 °F 29.84 in SE 11.5 mph 9 mph 88% 0 in 264.00 W/m2
11:24 74.8 °F 71 °F 29.84 in SSE 11.5 mph 6.2 mph 88% 0 in 250.00 W/m2
11:29 75.2 °F 71.7 °F 29.83 in SE 9.2 mph 7.8 mph 89% 0 in 355.00 W/m2
11:34 75.6 °F 71.8 °F 29.83 in SSE 12.7 mph 5 mph 88% 0 in 287.00 W/m2
11:39 75.9 °F 72.1 °F 29.83 in SE 12.7 mph 7.7 mph 88% 0 in 288.00 W/m2
11:44 76.1 °F 71.9 °F 29.83 in SSE 11.5 mph 9.5 mph 87% 0 in 353.00 W/m2
11:49 76.3 °F 72.5 °F 29.83 in SSW 8.1 mph 5.7 mph 88% 0 in 227.00 W/m2
11:54 76.4 °F 72.6 °F 29.83 in SSE 10.4 mph 4.6 mph 88% 0 in 332.00 W/m2
11:59 76.6 °F 72.4 °F 29.83 in SSE 11.5 mph 4.4 mph 87% 0 in 153.00 W/m2
12:04 76.4 °F 72.2 °F 29.84 in South 11.5 mph 7.8 mph 87% 0 in 127.00 W/m2
12:09 76.2 °F 72 °F 29.84 in South 12.7 mph 7.6 mph 87% 0 in 134.00 W/m2
12:14 76.1 °F 72.3 °F 29.84 in SSE 11.5 mph 6.5 mph 88% 0 in 149.00 W/m2
12:19 76.1 °F 72.3 °F 29.84 in South 8.1 mph 2.3 mph 88% 0 in 121.00 W/m2
12:24 76 °F 72.2 °F 29.84 in South 6.9 mph 2.2 mph 88% 0 in 127.00 W/m2
12:29 76.1 °F 72.6 °F 29.84 in South 5.8 mph 2.1 mph 89% 0 in 181.00 W/m2
12:34 76.2 °F 72.7 °F 29.84 in South 9.2 mph 2.2 mph 89% 0 in 172.00 W/m2
12:39 76.4 °F 72.9 °F 29.84 in South 3.5 mph 1.4 mph 89% 0 in 144.00 W/m2
12:44 76.4 °F 72.9 °F 29.84 in SSW 6.9 mph 1.1 mph 89% 0 in 88.00 W/m2
12:49 76.4 °F 72.9 °F 29.84 in SSE 6.9 mph 3.9 mph 89% 0 in 70.00 W/m2
12:54 76.4 °F 72.9 °F 29.84 in South 1.2 mph   89% 0 in 151.00 W/m2
12:59 76.5 °F 73 °F 29.84 in South 6.9 mph 3 mph 89% 0 in 200.00 W/m2
13:04 76.7 °F 73.2 °F 29.83 in South 8.1 mph 3.6 mph 89% 0 in 255.00 W/m2
13:09 77 °F 73.8 °F 29.83 in SSE 8.1 mph 4.3 mph 90% 0 in 360.00 W/m2
13:14 77.2 °F 74 °F 29.82 in SSE 8.1 mph 2 mph 90% 0 in 281.00 W/m2
13:19 77.7 °F 74.2 °F 29.82 in South 6.9 mph 5.8 mph 89% 0 in 466.00 W/m2
13:24 78.7 °F 75.8 °F 29.82 in South 6.9 mph 4 mph 91% 0 in 940.00 W/m2
13:29 80 °F 76.1 °F 29.81 in South 9.2 mph 6.3 mph 88% 0 in 868.00 W/m2
13:34 80.3 °F 75.7 °F 29.80 in SSE 10.4 mph 4.4 mph 86% 0 in 613.00 W/m2
13:39 80.8 °F 75.9 °F 29.80 in SE 11.5 mph 7.1 mph 85% 0 in 596.00 W/m2
13:44 81 °F 76.1 °F 29.80 in SSE 12.7 mph 7.6 mph 85% 0 in 526.00 W/m2
13:49 80.5 °F 75.6 °F 29.80 in South 10.4 mph 5.8 mph 85% 0 in 250.00 W/m2
13:54 79.8 °F 74.9 °F 29.80 in SSE 11.5 mph 6.3 mph 85% 0 in 114.00 W/m2
13:59 78.7 °F 74.5 °F 29.80 in SSE 11.5 mph 5 mph 87% 0 in 74.00 W/m2
14:04 77.3 °F 73.8 °F 29.80 in SW 11.5 mph 8.1 mph 89% 0.02 in 193.00 W/m2
14:09 76.2 °F 72.7 °F 29.80 in SSW 9.2 mph 5.8 mph 89% 0.02 in 297.00 W/m2
14:14 75.6 °F 72.5 °F 29.79 in South 6.9 mph 2.1 mph 90% 0.02 in 353.00 W/m2
14:19 76.2 °F 73.4 °F 29.79 in SE 5 mph 3.6 mph 91% 0.02 in 933.00 W/m2
14:24 76.8 °F 73.6 °F 29.79 in SSE 3.5 mph 0.7 mph 90% 0.02 in 974.00 W/m2
14:29 77.1 °F 73.6 °F 29.78 in South 4.6 mph 3.9 mph 89% 0.02 in 974.00 W/m2
14:34 78.2 °F 75 °F 29.78 in SSE 3.5 mph   90% 0.02 in 1065.00 W/m2
14:39 78.8 °F 74.9 °F 29.78 in South 8.1 mph 3.7 mph 88% 0.02 in 837.00 W/m2
14:44 78.8 °F 74.3 °F 29.77 in SSE 11.5 mph 3.9 mph 86% 0.02 in 304.00 W/m2
14:49 79 °F 74.8 °F 29.77 in South 5.8 mph 3.5 mph 87% 0.02 in 410.00 W/m2
14:54 79.4 °F 75.2 °F 29.76 in South 5.8 mph 3 mph 87% 0.02 in 403.00 W/m2
14:59 80.3 °F 76.4 °F 29.76 in SSW 8 mph 4.1 mph 88% 0.02 in 963.00 W/m2
15:04 81.1 °F 75.8 °F 29.76 in South 13.8 mph 8.4 mph 84% 0 in 893.00 W/m2
15:09 81 °F 74.6 °F 29.75 in SSW 11 mph 4.2 mph 81% 0 in 816.00 W/m2
15:14 80.8 °F 74.4 °F 29.75 in SSE 11.5 mph 6.1 mph 81% 0 in 675.00 W/m2
15:19 80.3 °F 73.2 °F 29.75 in South 12.7 mph 8.6 mph 79% 0 in 244.00 W/m2
15:24 80.6 °F 74.2 °F 29.75 in South 11.5 mph 3.7 mph 81% 0 in 649.00 W/m2
15:29 80.9 °F 73.4 °F 29.74 in SSW 13.8 mph 9 mph 78% 0 in 782.00 W/m2
15:34 81.4 °F 73.1 °F 29.74 in South 15 mph 5.2 mph 76% 0 in 756.00 W/m2
15:39 81.8 °F 72.3 °F 29.74 in South 11.5 mph 6.6 mph 73% 0 in 766.00 W/m2
15:44 82.1 °F 70.9 °F 29.74 in South 9.2 mph 6 mph 69% 0 in 773.00 W/m2
15:49 82 °F 71.2 °F 29.73 in SSW 11.5 mph 4.6 mph 70% 0 in 675.00 W/m2
15:54 82.1 °F 70.9 °F 29.73 in South 9.2 mph 4.2 mph 69% 0 in 476.00 W/m2
15:59 82.1 °F 70.5 °F 29.73 in SSW 8.1 mph 5.6 mph 68% 0 in 752.00 W/m2
16:04 82.2 °F 69.7 °F 29.73 in SSW 13.8 mph 6.3 mph 66% 0 in 380.00 W/m2
16:09 82 °F 70 °F 29.73 in South 11.5 mph 4.5 mph 67% 0 in 311.00 W/m2
16:14 81.6 °F 70 °F 29.73 in South 9.2 mph 5.6 mph 68% 0 in 336.00 W/m2
16:19 81.4 °F 69.8 °F 29.73 in SSW 8.1 mph 4.4 mph 68% 0 in 274.00 W/m2
16:24 81.2 °F 70.1 °F 29.72 in South 10.4 mph 3.9 mph 69% 0 in 199.00 W/m2
16:29 80.8 °F 70.1 °F 29.72 in South 7 mph 6.3 mph 70% 0 in 125.00 W/m2
16:34 80.3 °F 70 °F 29.72 in South 6.9 mph 4 mph 71% 0 in 98.00 W/m2
16:39 79.9 °F 72.8 °F 29.72 in SSE 10.4 mph 8.7 mph 79% 0 in 67.00 W/m2
16:44 78.5 °F 72.9 °F 29.72 in SE 8.1 mph 4.9 mph 83% 0 in 105.00 W/m2
16:49 77.7 °F 72.5 °F 29.71 in SE 10.4 mph 8.1 mph 84% 0 in 104.00 W/m2
16:54 76.6 °F 72.1 °F 29.71 in SE 9.2 mph 6.4 mph 86% 0 in 79.00 W/m2
16:59 75.7 °F 71.9 °F 29.71 in SE 6.9 mph 5.6 mph 88% 0 in 63.00 W/m2
17:04 74.9 °F 71.8 °F 29.72 in SE 9.2 mph 6.8 mph 90% 0.01 in 46.00 W/m2
17:09 74.5 °F 72 °F 29.72 in SSW 15 mph 7.6 mph 92% 0.03 in 39.00 W/m2
17:14 73.8 °F 71.3 °F 29.72 in South 8.1 mph 3.7 mph 92% 0.05 in 53.00 W/m2
17:19 73.1 °F 71 °F 29.71 in SSE 9.2 mph 4.3 mph 93% 0.07 in 69.00 W/m2
17:24 72.1 °F 70 °F 29.72 in South 9.2 mph 5.3 mph 93% 0.08 in 62.00 W/m2
17:29 71.5 °F 69.4 °F 29.71 in SSE 5 mph 2.9 mph 93% 0.08 in 72.00 W/m2
17:34 71.3 °F 69.2 °F 29.71 in South 3.5 mph 1.3 mph 93% 0.08 in 135.00 W/m2
17:39 71.5 °F 69.7 °F 29.70 in SSE 4 mph 3.2 mph 94% 0.08 in 209.00 W/m2
17:44 71.6 °F 69.8 °F 29.70 in SSE 4.6 mph 2.9 mph 94% 0.08 in 178.00 W/m2
17:49 71.9 °F 70.1 °F 29.70 in SSE 3.5 mph 2.5 mph 94% 0.08 in 162.00 W/m2
17:54 72.1 °F 70.3 °F 29.70 in SSE 3.5 mph 2.4 mph 94% 0.08 in 142.00 W/m2
17:59 72.4 °F 70.6 °F 29.70 in SSE 3.5 mph 2.1 mph 94% 0.08 in 123.00 W/m2
18:04 72.6 °F 70.8 °F 29.70 in SSE 4 mph 2.6 mph 94% 0.07 in 105.00 W/m2
18:09 72.9 °F 71.1 °F 29.70 in SE 4 mph 2.8 mph 94% 0.05 in 120.00 W/m2
18:14 73 °F 71.2 °F 29.70 in SSE 3.5 mph 2.5 mph 94% 0.03 in 102.00 W/m2
18:19 73.2 °F 71.4 °F 29.70 in SSE 3.5 mph 2.5 mph 94% 0.01 in 102.00 W/m2
18:24 73.3 °F 71.5 °F 29.70 in SSE 4.6 mph 1.7 mph 94% 0 in 116.00 W/m2
18:29 73.4 °F 71.6 °F 29.70 in SE 6 mph 3.6 mph 94% 0 in 113.00 W/m2
18:34 73.3 °F 71.5 °F 29.69 in SSE 2.3 mph   94% 0 in 102.00 W/m2
18:39 73.4 °F 71.6 °F 29.69 in Calm     94% 0 in 109.00 W/m2
18:44 73.4 °F 71.6 °F 29.68 in Calm     94% 0 in 104.00 W/m2
18:49 73.5 °F 71.7 °F 29.69 in Calm     94% 0 in 97.00 W/m2
18:54 73.3 °F 71.5 °F 29.69 in Calm     94% 0 in 86.00 W/m2
18:59 73.3 °F 71.5 °F 29.68 in Calm     94% 0 in 70.00 W/m2
19:04 73.3 °F 71.5 °F 29.68 in Calm     94% 0 in 67.00 W/m2
19:09 73.3 °F 71.5 °F 29.68 in Calm     94% 0 in 60.00 W/m2
19:14 73.4 °F 71.6 °F 29.68 in Calm     94% 0 in 53.00 W/m2
19:19 73.4 °F 71.6 °F 29.68 in Calm     94% 0 in 40.00 W/m2
19:24 73.4 °F 71.6 °F 29.67 in Calm     94% 0 in 37.00 W/m2
19:29 73.4 °F 71.6 °F 29.67 in Calm     94% 0 in 32.00 W/m2
19:34 73.3 °F 71.5 °F 29.68 in Calm     94% 0 in 35.00 W/m2
19:39 73.3 °F 71.5 °F 29.68 in Calm     94% 0 in 37.00 W/m2
19:44 73.3 °F 71.5 °F 29.68 in Calm     94% 0 in 37.00 W/m2
19:49 73.2 °F 71.4 °F 29.68 in Calm     94% 0 in 35.00 W/m2
19:54 73.1 °F 71.3 °F 29.67 in Calm     94% 0 in 26.00 W/m2
19:59 73.1 °F 71.3 °F 29.67 in SSE 3.5 mph 2.9 mph 94% 0 in 19.00 W/m2
20:04 73 °F 71.2 °F 29.67 in Calm   1.1 mph 94% 0 in 14.00 W/m2
20:09 73 °F 71.2 °F 29.67 in SSW 2.3 mph 0.4 mph 94% 0 in 11.00 W/m2
20:14 73 °F 70.9 °F 29.67 in South 4.6 mph   93% 0 in 7.00 W/m2
20:19 73 °F 70.9 °F 29.67 in Calm     93% 0 in 0.00 W/m2
20:24 72.9 °F 70.4 °F 29.67 in Calm     92% 0 in 0.00 W/m2
20:29 72.8 °F 70.3 °F 29.67 in SSW 3.5 mph   92% 0 in 0.00 W/m2
20:35 72.8 °F 70 °F 29.67 in Calm     91% 0 in 0.00 W/m2
20:39 72.7 °F 69.9 °F 29.67 in SSW 1.2 mph   91% 0 in 0.00 W/m2
20:44 72.6 °F 69.8 °F 29.68 in Calm     91% 0 in 0.00 W/m2
20:49 72.5 °F 69.7 °F 29.68 in Calm     91% 0 in 0.00 W/m2
20:54 72.4 °F 69.6 °F 29.68 in Calm     91% 0 in 0.00 W/m2
20:59 72.2 °F 69.7 °F 29.68 in South 3 mph 0.1 mph 92% 0 in 0.00 W/m2
21:04 72.1 °F 69.6 °F 29.68 in Calm     92% 0 in 0.00 W/m2
21:09 72 °F 69.5 °F 29.68 in Calm     92% 0 in 0.00 W/m2
21:14 71.9 °F 69.4 °F 29.68 in SSW 2.3 mph   92% 0 in 0.00 W/m2
21:19 72 °F 69.5 °F 29.69 in South 5.8 mph 1.5 mph 92% 0 in 0.00 W/m2
21:24 72 °F 69.5 °F 29.69 in South 3.5 mph 2.1 mph 92% 0 in 0.00 W/m2
21:29 71.9 °F 69.4 °F 29.69 in SSE 6.9 mph 3.7 mph 92% 0 in 0.00 W/m2
21:34 71.8 °F 69.7 °F 29.69 in South 3.5 mph 1.5 mph 93% 0 in 0.00 W/m2
21:39 71.7 °F 69.6 °F 29.69 in South 4.6 mph 2.3 mph 93% 0 in 0.00 W/m2
21:44 71.7 °F 69.6 °F 29.69 in SSE 4.6 mph 3 mph 93% 0 in 0.00 W/m2
21:49 71.6 °F 69.5 °F 29.69 in South 3.5 mph 2.4 mph 93% 0 in 0.00 W/m2
21:54 71.5 °F 69.4 °F 29.69 in SSW 3.5 mph 2.2 mph 93% 0 in 0.00 W/m2
21:59 71.5 °F 69.7 °F 29.69 in South 4.6 mph 3.4 mph 94% 0 in 0.00 W/m2
22:04 71.4 °F 69.6 °F 29.69 in SSE 3.5 mph 2.6 mph 94% 0 in 0.00 W/m2
22:09 71.4 °F 69.6 °F 29.69 in South 3.5 mph 2.9 mph 94% 0 in 0.00 W/m2
22:14 71.3 °F 69.5 °F 29.69 in South 4.6 mph 3 mph 94% 0 in 0.00 W/m2
22:19 71.3 °F 69.5 °F 29.69 in South 4.6 mph 2.9 mph 94% 0 in 0.00 W/m2
22:24 71.3 °F 69.5 °F 29.69 in South 4.6 mph 2.9 mph 94% 0 in 0.00 W/m2
22:29 71.3 °F 69.5 °F 29.69 in South 3.5 mph 2.2 mph 94% 0 in 0.00 W/m2
22:34 71.2 °F 69.4 °F 29.68 in SSE 5.8 mph 2.2 mph 94% 0 in 0.00 W/m2
22:39 71.1 °F 69.3 °F 29.68 in SSW 4.6 mph 3.2 mph 94% 0 in 0.00 W/m2
22:44 71.1 °F 69.3 °F 29.68 in South 5 mph 2.8 mph 94% 0 in 0.00 W/m2
22:49 71 °F 69.2 °F 29.68 in Calm     94% 0 in 0.00 W/m2
22:54 71 °F 69.2 °F 29.68 in Calm     94% 0 in 0.00 W/m2
22:59 70.9 °F 69.4 °F 29.67 in South 1.2 mph   95% 0 in 0.00 W/m2
23:04 70.8 °F 69.3 °F 29.67 in South 1.2 mph 0.5 mph 95% 0 in 0.00 W/m2
23:09 70.8 °F 69.3 °F 29.67 in South 3.5 mph 0.5 mph 95% 0 in 0.00 W/m2
23:14 70.7 °F 69.2 °F 29.67 in Calm     95% 0 in 0.00 W/m2
23:19 70.6 °F 69.1 °F 29.67 in Calm     95% 0 in 0.00 W/m2
23:24 70.5 °F 69 °F 29.67 in Calm     95% 0 in 0.00 W/m2
23:29 70.4 °F 68.9 °F 29.67 in South 3.5 mph 3.8 mph 95% 0 in 0.00 W/m2
23:34 70.3 °F 68.8 °F 29.67 in South 5.8 mph 2.8 mph 95% 0 in 0.00 W/m2
23:39 70.3 °F 68.8 °F 29.67 in SSE 3.5 mph 2.1 mph 95% 0 in 0.00 W/m2
23:44 70.2 °F 68.7 °F 29.67 in SSW 3.5 mph 2.2 mph 95% 0 in 0.00 W/m2
23:49 70.1 °F 68.6 °F 29.67 in South 3.5 mph 0.3 mph 95% 0 in 0.00 W/m2
23:54 70 °F 68.5 °F 29.67 in Calm     95% 0 in 0.00 W/m2
23:59 70 °F 68.5 °F 29.67 in South 3.5 mph 0.5 mph 95% 0 in 0.00 W/m2
Bourbonnais, Illinois, USA
Compliments of Weather Underground - 2 mb